createdAt,value
2022-07-30T00:00:50.779Z,4.90
2022-07-30T00:03:17.941Z,5.10
2022-07-30T00:05:44.944Z,5.10
2022-07-30T00:08:11.758Z,4.60
2022-07-30T00:10:39.443Z,5.03
2022-07-30T00:13:07.361Z,5.27
2022-07-30T00:15:34.821Z,4.10
2022-07-30T00:18:01.794Z,5.43
2022-07-30T00:20:29.025Z,4.83
2022-07-30T00:22:56.298Z,4.87
2022-07-30T00:25:23.343Z,5.37
2022-07-30T00:27:50.353Z,4.70
2022-07-30T00:30:17.120Z,4.93
2022-07-30T00:32:44.045Z,4.70
2022-07-30T00:35:11.747Z,4.77
2022-07-30T00:37:38.660Z,4.97
2022-07-30T00:40:08.514Z,4.83
2022-07-30T00:42:53.435Z,5.27
2022-07-30T00:45:21.170Z,5.10
2022-07-30T00:47:48.089Z,4.80
2022-07-30T00:50:16.761Z,5.90
2022-07-30T00:52:44.892Z,4.97
2022-07-30T00:55:15.817Z,4.90
2022-07-30T00:57:43.415Z,5.33
2022-07-30T01:00:15.156Z,4.80
2022-07-30T01:02:42.091Z,5.00
2022-07-30T01:05:10.096Z,5.17
2022-07-30T01:07:37.093Z,5.63
2022-07-30T01:10:06.503Z,5.43
2022-07-30T01:12:33.955Z,5.50
2022-07-30T01:15:04.874Z,5.00
2022-07-30T01:17:32.259Z,5.10
2022-07-30T01:20:24.330Z,4.43
2022-07-30T01:23:14.660Z,5.60
2022-07-30T01:25:54.501Z,5.37
2022-07-30T01:28:33.424Z,5.60
2022-07-30T01:31:02.366Z,4.87
2022-07-30T01:33:32.562Z,5.70
2022-07-30T01:36:02.414Z,5.40
2022-07-30T01:38:35.069Z,5.47
2022-07-30T01:41:03.835Z,5.40
2022-07-30T01:43:34.351Z,5.27
2022-07-30T01:46:04.044Z,5.20
2022-07-30T01:48:34.848Z,4.93
2022-07-30T01:51:05.809Z,5.50
2022-07-30T01:53:37.687Z,5.17
2022-07-30T01:56:10.766Z,5.77
2022-07-30T01:58:39.899Z,4.83
2022-07-30T02:01:07.673Z,5.27
2022-07-30T02:03:35.387Z,5.47
2022-07-30T02:06:10.973Z,5.33
2022-07-30T02:08:57.940Z,5.17
2022-07-30T02:11:44.291Z,5.50
2022-07-30T02:14:27.862Z,5.43
2022-07-30T02:16:58.709Z,5.30
2022-07-30T02:19:38.025Z,5.03
2022-07-30T02:22:15.238Z,5.60
2022-07-30T02:24:44.325Z,5.83
2022-07-30T02:27:27.158Z,4.93
2022-07-30T02:30:00.160Z,5.40
2022-07-30T02:32:33.847Z,5.53
2022-07-30T02:35:10.370Z,5.83
2022-07-30T02:37:44.190Z,5.50
2022-07-30T02:40:20.056Z,5.00
2022-07-30T02:42:50.871Z,5.57
2022-07-30T02:45:19.334Z,4.90
2022-07-30T02:47:53.991Z,5.10
2022-07-30T02:50:24.638Z,5.77
2022-07-30T02:52:54.627Z,5.43
2022-07-30T02:55:23.952Z,5.50
2022-07-30T02:57:54.773Z,5.10
2022-07-30T03:00:24.014Z,5.60
2022-07-30T03:02:56.745Z,6.07
2022-07-30T03:05:25.604Z,5.10
2022-07-30T03:07:56.552Z,5.57
2022-07-30T03:10:26.660Z,5.90
2022-07-30T03:12:56.440Z,5.47
2022-07-30T03:15:23.728Z,6.07
2022-07-30T03:17:54.078Z,5.80
2022-07-30T03:20:30.070Z,6.00
2022-07-30T03:23:01.499Z,5.70
2022-07-30T03:25:30.757Z,5.97
2022-07-30T03:28:00.660Z,6.10
2022-07-30T03:30:28.751Z,5.83
2022-07-30T03:32:56.753Z,6.07
2022-07-30T03:35:25.019Z,6.47
2022-07-30T03:37:55.417Z,6.40
2022-07-30T03:40:23.230Z,6.70
2022-07-30T03:42:50.813Z,6.90
2022-07-30T03:45:19.997Z,6.70
2022-07-30T03:47:47.950Z,6.23
2022-07-30T03:50:15.450Z,6.97
2022-07-30T03:52:43.469Z,6.53
2022-07-30T03:55:13.114Z,5.90
2022-07-30T03:57:40.184Z,6.80
2022-07-30T04:00:14.352Z,6.57
2022-07-30T04:02:46.159Z,6.33
2022-07-30T04:05:14.545Z,6.00
2022-07-30T04:07:45.326Z,6.00
2022-07-30T04:10:13.259Z,7.60
2022-07-30T04:12:40.098Z,7.23
2022-07-30T04:16:05.024Z,7.57
2022-07-30T04:18:02.672Z,7.00
2022-07-30T04:20:41.143Z,6.80
2022-07-30T04:23:10.576Z,7.10
2022-07-30T04:25:40.112Z,6.90
2022-07-30T04:28:07.281Z,7.37
2022-07-30T04:30:37.010Z,8.17
2022-07-30T04:33:05.361Z,7.50
2022-07-30T04:35:51.721Z,8.23
2022-07-30T04:38:20.502Z,8.40
2022-07-30T04:40:47.991Z,7.60
2022-07-30T04:43:15.451Z,8.73
2022-07-30T04:45:42.694Z,8.47
2022-07-30T04:48:09.541Z,7.67
2022-07-30T04:50:43.186Z,8.47
2022-07-30T04:53:11.684Z,7.90
2022-07-30T04:55:45.501Z,7.37
2022-07-30T04:58:16.444Z,8.23
2022-07-30T05:00:45.225Z,8.23
2022-07-30T05:03:15.036Z,8.23
2022-07-30T05:05:42.937Z,8.40
2022-07-30T05:08:09.985Z,9.10
2022-07-30T05:10:38.581Z,8.87
2022-07-30T05:13:11.479Z,8.67
2022-07-30T05:15:40.841Z,8.83
2022-07-30T05:18:08.522Z,9.10
2022-07-30T05:20:35.369Z,10.07
2022-07-30T05:23:02.841Z,10.10
2022-07-30T05:25:29.640Z,10.23
2022-07-30T05:27:59.538Z,10.63
2022-07-30T05:30:27.419Z,11.00
2022-07-30T05:32:56.039Z,10.70
2022-07-30T05:35:23.350Z,14.00
2022-07-30T05:37:50.139Z,14.47
2022-07-30T05:40:17.277Z,13.33
2022-07-30T05:42:44.133Z,13.00
2022-07-30T05:45:11.347Z,12.93
2022-07-30T05:47:38.288Z,15.97
2022-07-30T05:50:05.822Z,19.07
2022-07-30T05:52:33.564Z,19.53
2022-07-30T05:55:00.355Z,20.67
2022-07-30T05:57:27.264Z,20.00
2022-07-30T05:59:54.068Z,21.13
2022-07-30T06:02:24.518Z,20.77
2022-07-30T06:04:52.199Z,21.33
2022-07-30T06:07:19.171Z,22.33
2022-07-30T06:09:46.298Z,22.57
2022-07-30T06:12:13.113Z,22.33
2022-07-30T06:14:39.938Z,20.47
2022-07-30T06:17:06.859Z,22.50
2022-07-30T06:19:33.646Z,22.47
2022-07-30T06:22:00.460Z,22.53
2022-07-30T06:24:33.395Z,21.20
2022-07-30T06:27:00.959Z,21.93
2022-07-30T06:29:28.532Z,22.40
2022-07-30T06:31:55.790Z,21.70
2022-07-30T06:34:23.306Z,22.67
2022-07-30T06:36:50.134Z,21.83
2022-07-30T06:39:55.955Z,22.57
2022-07-30T06:42:04.575Z,21.83
2022-07-30T06:44:31.558Z,22.17
2022-07-30T06:46:58.983Z,21.67
2022-07-30T06:49:27.773Z,20.30
2022-07-30T06:51:54.564Z,22.37
2022-07-30T06:54:21.326Z,22.47
2022-07-30T06:56:48.124Z,21.43
2022-07-30T06:59:15.907Z,19.93
2022-07-30T07:01:45.105Z,19.23
2022-07-30T07:04:12.345Z,18.10
2022-07-30T07:06:39.151Z,19.80
2022-07-30T07:09:06.166Z,19.83
2022-07-30T07:11:32.960Z,19.57
2022-07-30T07:14:04.321Z,19.10
2022-07-30T07:16:31.698Z,19.43
2022-07-30T07:18:58.536Z,19.40
2022-07-30T07:21:25.330Z,21.00
2022-07-30T07:23:52.231Z,21.67
2022-07-30T07:26:19.131Z,22.60
2022-07-30T07:28:45.893Z,25.30
2022-07-30T07:32:05.675Z,23.63
2022-07-30T07:33:59.460Z,22.83
2022-07-30T07:36:26.476Z,22.00
2022-07-30T07:38:54.640Z,20.63
2022-07-30T07:41:21.473Z,19.53
2022-07-30T07:43:48.219Z,21.92
2022-07-30T07:46:17.199Z,20.05
2022-07-30T07:49:01.181Z,18.27
2022-07-30T07:51:47.508Z,19.67
2022-07-30T07:54:21.604Z,17.83
2022-07-30T07:56:51.574Z,17.35
2022-07-30T07:59:20.497Z,16.52
2022-07-30T08:01:47.641Z,15.15
2022-07-30T08:04:17.547Z,15.35
2022-07-30T08:06:44.393Z,14.63
2022-07-30T08:09:11.198Z,14.82
2022-07-30T08:11:38.151Z,14.32
2022-07-30T08:14:04.899Z,14.60
2022-07-30T08:16:31.689Z,14.93
2022-07-30T08:18:58.572Z,17.10
2022-07-30T08:21:25.327Z,16.50
2022-07-30T08:23:52.269Z,15.57
2022-07-30T08:26:19.037Z,14.82
2022-07-30T08:28:45.903Z,15.07
2022-07-30T08:31:12.995Z,14.57
2022-07-30T08:33:39.830Z,14.52
2022-07-30T08:36:09.640Z,14.73
2022-07-30T08:38:38.305Z,13.88
2022-07-30T08:41:05.389Z,15.23
2022-07-30T08:43:33.373Z,14.15
2022-07-30T08:46:02.159Z,13.55
2022-07-30T08:48:29.507Z,12.38
2022-07-30T08:50:57.734Z,12.10
2022-07-30T08:53:25.338Z,13.25
2022-07-30T08:55:56.846Z,13.50
2022-07-30T08:58:35.286Z,12.80
2022-07-30T09:01:04.418Z,13.07
2022-07-30T09:03:32.684Z,12.75
2022-07-30T09:06:02.039Z,11.88
2022-07-30T09:08:29.299Z,12.82
2022-07-30T09:10:56.335Z,11.93
2022-07-30T09:13:37.578Z,12.05
2022-07-30T09:16:06.371Z,11.85
2022-07-30T09:18:41.026Z,12.60
2022-07-30T09:21:25.769Z,11.48
2022-07-30T09:24:10.635Z,10.52
2022-07-30T09:27:05.061Z,11.48
2022-07-30T09:29:32.993Z,11.82
2022-07-30T09:32:06.524Z,11.85
2022-07-30T09:34:37.801Z,11.63
2022-07-30T09:37:29.558Z,12.00
2022-07-30T09:39:59.945Z,10.57
2022-07-30T09:42:29.433Z,10.70
2022-07-30T09:45:15.081Z,10.52
2022-07-30T09:47:48.530Z,10.60
2022-07-30T09:50:30.030Z,10.77
2022-07-30T09:53:09.146Z,10.43
2022-07-30T09:55:41.371Z,9.40
2022-07-30T09:58:10.308Z,10.15
2022-07-30T10:00:43.650Z,10.15
2022-07-30T10:03:33.162Z,9.20
2022-07-30T10:06:03.059Z,9.52
2022-07-30T10:08:50.539Z,9.55
2022-07-30T10:11:25.462Z,9.80
2022-07-30T10:13:57.226Z,9.93
2022-07-30T10:16:29.628Z,8.60
2022-07-30T10:19:00.169Z,9.18
2022-07-30T10:21:29.038Z,8.15
2022-07-30T10:23:59.896Z,6.90
2022-07-30T10:26:28.734Z,8.18
2022-07-30T10:28:56.679Z,7.38
2022-07-30T10:31:48.388Z,7.25
2022-07-30T10:34:16.544Z,6.80
2022-07-30T10:36:52.107Z,6.63
2022-07-30T10:39:27.700Z,7.30
2022-07-30T10:42:49.572Z,6.80
2022-07-30T10:45:59.387Z,6.82
2022-07-30T10:48:35.750Z,7.00
2022-07-30T10:51:02.784Z,7.05
2022-07-30T10:53:40.098Z,7.57
2022-07-30T10:56:25.716Z,7.93
2022-07-30T10:59:11.312Z,7.88
2022-07-30T11:02:07.867Z,6.57
2022-07-30T11:04:35.052Z,6.38
2022-07-30T11:07:21.502Z,6.63
2022-07-30T11:10:09.071Z,7.93
2022-07-30T11:12:42.224Z,7.40
2022-07-30T11:15:18.794Z,6.10
2022-07-30T11:18:13.119Z,6.28
2022-07-30T11:20:43.267Z,6.70
2022-07-30T11:23:39.043Z,6.47
2022-07-30T11:26:07.180Z,6.60
2022-07-30T11:28:39.046Z,6.28
2022-07-30T11:31:54.948Z,5.85
2022-07-30T11:34:24.210Z,5.70
2022-07-30T11:37:21.845Z,5.93
2022-07-30T11:39:55.471Z,5.90
2022-07-30T11:42:36.784Z,6.10
2022-07-30T11:45:15.799Z,5.72
2022-07-30T11:47:55.343Z,5.40
2022-07-30T11:50:34.736Z,4.78
2022-07-30T11:53:14.056Z,5.55
2022-07-30T11:55:47.719Z,5.38
2022-07-30T11:58:28.281Z,5.75
2022-07-30T12:00:58.936Z,5.65
2022-07-30T12:03:31.732Z,7.75
2022-07-30T12:06:18.281Z,8.38
2022-07-30T12:08:48.423Z,5.85
2022-07-30T12:11:15.623Z,5.88
2022-07-30T12:13:54.884Z,4.72
2022-07-30T12:16:21.832Z,5.88
2022-07-30T12:18:48.629Z,5.45
2022-07-30T12:21:16.140Z,5.15
2022-07-30T12:23:54.808Z,5.35
2022-07-30T12:26:29.336Z,5.22
2022-07-30T12:29:02.992Z,5.88
2022-07-30T12:31:30.194Z,5.07
2022-07-30T12:33:59.106Z,5.00
2022-07-30T12:36:35.361Z,5.28
2022-07-30T12:39:04.868Z,4.30
2022-07-30T12:41:49.989Z,4.30
2022-07-30T12:44:35.213Z,4.25
2022-07-30T12:47:04.583Z,4.43
2022-07-30T12:49:39.190Z,4.47
2022-07-30T12:52:34.536Z,4.97
2022-07-30T12:55:11.302Z,4.00
2022-07-30T12:57:54.668Z,4.97
2022-07-30T13:00:24.083Z,4.22
2022-07-30T13:02:51.177Z,4.10
2022-07-30T13:05:18.031Z,3.28
2022-07-30T13:08:14.478Z,2.90
2022-07-30T13:11:01.838Z,3.78
2022-07-30T13:13:29.737Z,3.42
2022-07-30T13:16:06.141Z,3.65
2022-07-30T13:18:35.138Z,3.97
2022-07-30T13:21:04.307Z,4.03
2022-07-30T13:23:31.346Z,4.10
2022-07-30T13:25:58.320Z,4.32
2022-07-30T13:28:25.425Z,3.25
2022-07-30T13:30:52.732Z,2.60
2022-07-30T13:33:19.972Z,1.98
2022-07-30T13:35:46.718Z,2.10
2022-07-30T13:38:13.623Z,2.20
2022-07-30T13:40:40.691Z,2.30
2022-07-30T13:43:08.378Z,2.33
2022-07-30T13:45:35.945Z,2.55
2022-07-30T13:48:03.975Z,2.40
2022-07-30T13:50:30.992Z,2.40
2022-07-30T13:53:02.107Z,2.15
2022-07-30T13:55:30.081Z,2.20
2022-07-30T13:57:57.307Z,2.15
2022-07-30T14:00:24.974Z,2.10
2022-07-30T14:02:54.522Z,1.90
2022-07-30T14:05:21.376Z,2.20
2022-07-30T14:07:48.184Z,3.08
2022-07-30T14:10:15.727Z,2.20
2022-07-30T14:12:42.565Z,2.55
2022-07-30T14:15:09.863Z,2.40
2022-07-30T14:17:36.637Z,2.80
2022-07-30T14:20:04.438Z,2.42
2022-07-30T14:22:31.241Z,2.40
2022-07-30T14:24:58.020Z,2.45
2022-07-30T14:27:24.794Z,2.63
2022-07-30T14:29:51.998Z,2.92
2022-07-30T14:32:18.792Z,2.95
2022-07-30T14:34:49.173Z,2.88
2022-07-30T14:37:16.780Z,2.40
2022-07-30T14:39:43.898Z,2.80
2022-07-30T14:42:11.246Z,2.70
2022-07-30T14:44:38.687Z,3.00
2022-07-30T14:47:05.981Z,4.07
2022-07-30T14:49:33.074Z,2.60
2022-07-30T14:52:00.828Z,2.65
2022-07-30T14:54:28.006Z,3.35
2022-07-30T14:56:58.231Z,2.67
2022-07-30T14:59:27.480Z,7.68
2022-07-30T15:01:55.990Z,3.72
2022-07-30T15:04:23.094Z,3.03
2022-07-30T15:06:50.041Z,3.08
2022-07-30T15:09:16.826Z,2.60
2022-07-30T15:12:09.463Z,3.03
2022-07-30T15:14:30.382Z,3.30
2022-07-30T15:17:03.418Z,3.17
2022-07-30T15:19:31.573Z,3.05
2022-07-30T15:22:01.938Z,2.97
2022-07-30T15:24:30.031Z,3.17
2022-07-30T15:26:56.856Z,3.08
2022-07-30T15:29:24.361Z,3.35
2022-07-30T15:31:51.848Z,3.00
2022-07-30T15:34:18.800Z,3.08
2022-07-30T15:36:45.871Z,3.00
2022-07-30T15:39:13.444Z,3.25
2022-07-30T15:41:42.779Z,3.17
2022-07-30T15:44:09.670Z,2.88
2022-07-30T15:46:36.499Z,3.88
2022-07-30T15:49:03.758Z,5.72
2022-07-30T15:51:32.578Z,4.97
2022-07-30T15:53:59.690Z,3.80
2022-07-30T15:56:28.150Z,3.90
2022-07-30T15:58:55.407Z,3.28
2022-07-30T16:01:22.236Z,3.72
2022-07-30T16:03:49.115Z,3.30
2022-07-30T16:06:15.977Z,3.42
2022-07-30T16:08:42.753Z,3.30
2022-07-30T16:11:10.906Z,3.47
2022-07-30T16:13:38.247Z,3.72
2022-07-30T16:16:05.473Z,3.60
2022-07-30T16:18:32.413Z,3.70
2022-07-30T16:21:01.064Z,4.47
2022-07-30T16:23:28.537Z,4.32
2022-07-30T16:26:04.074Z,3.40
2022-07-30T16:28:31.774Z,3.63
2022-07-30T16:30:58.769Z,4.55
2022-07-30T16:33:25.594Z,3.72
2022-07-30T16:35:52.642Z,3.42
2022-07-30T16:38:23.223Z,3.67
2022-07-30T16:40:50.634Z,3.60
2022-07-30T16:43:19.528Z,3.28
2022-07-30T16:45:47.002Z,3.80
2022-07-30T16:48:13.865Z,3.50
2022-07-30T16:50:41.688Z,3.92
2022-07-30T16:53:13.697Z,3.83
2022-07-30T16:55:41.601Z,3.35
2022-07-30T16:58:08.720Z,3.22
2022-07-30T17:00:35.646Z,3.50
2022-07-30T17:03:02.677Z,3.95
2022-07-30T17:05:29.784Z,3.42
2022-07-30T17:07:56.654Z,4.95
2022-07-30T17:10:25.623Z,4.53
2022-07-30T17:12:53.895Z,5.32
2022-07-30T17:15:20.744Z,4.50
2022-07-30T17:17:59.516Z,6.20
2022-07-30T17:20:26.290Z,3.97
2022-07-30T17:22:55.263Z,3.88
2022-07-30T17:25:27.307Z,4.45
2022-07-30T17:27:58.802Z,3.97
2022-07-30T17:30:28.007Z,3.88
2022-07-30T17:32:54.793Z,3.42
2022-07-30T17:35:22.661Z,3.47
2022-07-30T17:37:49.455Z,3.65
2022-07-30T17:40:27.625Z,3.47
2022-07-30T17:43:03.015Z,3.50
2022-07-30T17:45:35.608Z,3.38
2022-07-30T17:48:04.690Z,3.42
2022-07-30T17:50:33.888Z,3.63
2022-07-30T17:53:04.496Z,3.65
2022-07-30T17:55:35.600Z,3.28
2022-07-30T17:58:04.416Z,3.63
2022-07-30T18:00:32.028Z,3.92
2022-07-30T18:02:59.121Z,3.47
2022-07-30T18:05:26.065Z,3.50
2022-07-30T18:07:52.825Z,3.47
2022-07-30T18:10:19.798Z,3.80
2022-07-30T18:12:48.987Z,3.60
2022-07-30T18:15:19.556Z,4.13
2022-07-30T18:17:46.389Z,8.48
2022-07-30T18:20:14.320Z,4.57
2022-07-30T18:22:41.468Z,3.90
2022-07-30T18:25:18.938Z,4.10
2022-07-30T18:27:47.516Z,4.28
2022-07-30T18:30:14.710Z,5.03
2022-07-30T18:32:46.770Z,36.03
2022-07-30T18:35:15.222Z,4.35
2022-07-30T18:37:43.607Z,3.40
2022-07-30T18:40:23.870Z,4.60
2022-07-30T18:42:51.712Z,4.45
2022-07-30T18:45:18.748Z,3.63
2022-07-30T18:47:46.831Z,3.88
2022-07-30T18:50:27.881Z,3.83
2022-07-30T18:52:55.615Z,10.13
2022-07-30T18:55:22.524Z,7.10
2022-07-30T18:57:52.145Z,5.38
2022-07-30T19:00:35.043Z,4.15
2022-07-30T19:03:03.346Z,5.60
2022-07-30T19:05:30.164Z,5.90
2022-07-30T19:07:58.787Z,5.75
2022-07-30T19:10:27.430Z,6.60
2022-07-30T19:12:55.359Z,11.38
2022-07-30T19:15:22.830Z,9.25
2022-07-30T19:17:51.269Z,20.67
2022-07-30T19:20:19.440Z,12.52
2022-07-30T19:22:46.863Z,9.10
2022-07-30T19:25:14.127Z,18.10
2022-07-30T19:27:41.192Z,23.05
2022-07-30T19:30:08.866Z,8.48
2022-07-30T19:32:35.667Z,7.72
2022-07-30T19:35:02.675Z,7.15
2022-07-30T19:37:29.445Z,10.35
2022-07-30T19:40:05.235Z,13.40
2022-07-30T19:42:34.045Z,11.50
2022-07-30T19:45:04.332Z,10.85
2022-07-30T19:47:39.588Z,7.65
2022-07-30T19:50:08.471Z,7.35
2022-07-30T19:52:36.343Z,7.10
2022-07-30T19:55:04.361Z,4.53
2022-07-30T19:57:52.964Z,7.15
2022-07-30T20:00:25.178Z,4.15
2022-07-30T20:02:52.398Z,7.30
2022-07-30T20:05:19.985Z,19.23
2022-07-30T20:07:47.652Z,4.28
2022-07-30T20:10:16.127Z,3.13
2022-07-30T20:12:49.629Z,3.30
2022-07-30T20:15:17.822Z,3.90
2022-07-30T20:17:46.311Z,4.60
2022-07-30T20:20:14.750Z,6.05
2022-07-30T20:22:41.886Z,4.78
2022-07-30T20:25:11.104Z,4.03
2022-07-30T20:27:40.410Z,3.70
2022-07-30T20:30:09.389Z,3.00
2022-07-30T20:32:39.930Z,3.00
2022-07-30T20:35:11.492Z,3.08
2022-07-30T20:37:40.302Z,2.65
2022-07-30T20:40:22.300Z,2.88
2022-07-30T20:42:49.981Z,3.30
2022-07-30T20:45:16.909Z,3.03
2022-07-30T20:47:52.751Z,3.33
2022-07-30T20:50:19.577Z,3.65
2022-07-30T20:52:58.109Z,3.75
2022-07-30T20:55:24.947Z,3.38
2022-07-30T20:58:01.285Z,3.30
2022-07-30T21:00:38.621Z,3.53
2022-07-30T21:03:05.596Z,3.45
2022-07-30T21:05:32.523Z,3.25
2022-07-30T21:07:59.327Z,3.22
2022-07-30T21:10:27.807Z,3.30
2022-07-30T21:12:58.797Z,3.50
2022-07-30T21:15:32.823Z,3.10
2022-07-30T21:17:59.846Z,3.00
2022-07-30T21:20:30.981Z,3.53
2022-07-30T21:23:12.046Z,3.85
2022-07-30T21:26:02.864Z,3.53
2022-07-30T21:28:29.161Z,4.63
2022-07-30T21:30:57.372Z,3.70
2022-07-30T21:33:24.613Z,3.20
2022-07-30T21:35:58.549Z,2.90
2022-07-30T21:38:26.578Z,3.25
2022-07-30T21:40:53.581Z,3.45
2022-07-30T21:43:29.732Z,3.00
2022-07-30T21:45:58.886Z,3.33
2022-07-30T21:48:26.796Z,3.10
2022-07-30T21:50:55.480Z,3.03
2022-07-30T21:53:29.963Z,3.00
2022-07-30T21:56:10.373Z,2.58
2022-07-30T21:58:39.330Z,3.08
2022-07-30T22:01:16.581Z,2.80
2022-07-30T22:04:05.212Z,2.95
2022-07-30T22:06:31.487Z,3.00
2022-07-30T22:09:00.278Z,2.67
2022-07-30T22:14:17.514Z,2.80
2022-07-30T22:16:46.668Z,2.95
2022-07-30T22:19:15.173Z,2.78
2022-07-30T22:21:46.643Z,3.03
2022-07-30T22:24:28.838Z,2.75
2022-07-30T22:27:00.037Z,2.63
2022-07-30T22:29:34.570Z,2.90
2022-07-30T22:32:04.136Z,2.75
2022-07-30T22:34:32.436Z,2.55
2022-07-30T22:36:59.242Z,3.55
2022-07-30T22:39:32.109Z,3.90
2022-07-30T22:42:12.976Z,3.67
2022-07-30T22:44:39.843Z,3.55
2022-07-30T22:47:18.623Z,4.15
2022-07-30T22:49:53.314Z,3.40
2022-07-30T22:52:22.596Z,3.55
2022-07-30T22:54:51.209Z,3.90
2022-07-30T22:57:23.025Z,3.33
2022-07-30T23:02:37.212Z,2.95
2022-07-30T23:05:04.783Z,2.70
2022-07-30T23:07:35.931Z,2.88
2022-07-30T23:10:17.195Z,2.90
2022-07-30T23:12:28.378Z,2.88
2022-07-30T23:12:30.876Z,3.38
2022-07-30T23:12:53.785Z,2.85
2022-07-30T23:15:21.875Z,2.88
2022-07-30T23:17:48.909Z,3.10
2022-07-30T23:20:20.755Z,2.85
2022-07-30T23:22:47.944Z,2.67
2022-07-30T23:25:15.342Z,2.58
2022-07-30T23:27:43.481Z,2.88
2022-07-30T23:30:11.511Z,2.80
2022-07-30T23:32:39.962Z,2.90
2022-07-30T23:35:08.873Z,3.28
2022-07-30T23:37:48.158Z,2.80
2022-07-30T23:40:19.435Z,2.65
2022-07-30T23:42:49.950Z,2.88
2022-07-30T23:45:17.631Z,3.40
2022-07-30T23:48:01.821Z,3.25
2022-07-30T23:50:33.572Z,2.90
2022-07-30T23:53:01.137Z,3.20
2022-07-30T23:55:29.241Z,2.67
2022-07-30T23:57:57.095Z,3.20
